Time;durP1;ratioP1;P1;durP2;ratioP2;P2;SDS_P1;SDS_P2;PMS_P1;PMS_P2;Temp;Humidity;BMP_temperature;BMP_pressure;BME280_temperature;BME280_humidity;BME280_pressure;Samples;Min_cycle;Max_cycle;Signal;HPM_P1;HPM_P2
2022/11/21 00:01:01;;;;;;;24.73;15.70;;;;;;;6.61;100.00;99842.73;1692448;83;21284;-60
2022/11/21 00:03:28;;;;;;;28.67;17.67;;;;;;;6.74;100.00;99845.11;1717729;82;21392;-61
2022/11/21 00:05:55;;;;;;;25.87;16.83;;;;;;;6.90;100.00;99841.64;1725026;83;21349;-62
2022/11/21 00:08:24;;;;;;;28.10;17.47;;;;;;;6.99;100.00;99843.70;1725093;82;21263;-73
2022/11/21 00:10:51;;;;;;;31.07;17.60;;;;;;;7.13;100.00;99834.41;1725810;81;21168;-60
2022/11/21 00:13:20;;;;;;;29.93;18.10;;;;;;;7.35;100.00;99833.62;1725801;81;21313;-60
2022/11/21 00:15:47;;;;;;;28.17;17.60;;;;;;;7.50;100.00;99835.78;1725177;83;21327;-72
2022/11/21 00:18:14;;;;;;;31.33;18.50;;;;;;;7.60;100.00;99834.73;1725198;83;22655;-73
2022/11/21 00:20:42;;;;;;;28.17;18.43;;;;;;;7.72;100.00;99831.53;1725914;81;22743;-60
2022/11/21 00:23:10;;;;;;;30.40;17.90;;;;;;;7.87;100.00;99827.69;1716960;83;21142;-60
2022/11/21 00:25:38;;;;;;;29.83;19.07;;;;;;;7.95;100.00;99826.31;1721285;83;21668;-72
2022/11/21 00:28:06;;;;;;;31.70;18.10;;;;;;;8.18;100.00;99820.25;1716400;83;21146;-60
2022/11/21 00:30:35;;;;;;;30.07;19.03;;;;;;;8.18;100.00;99820.25;1715821;83;21416;-62
2022/11/21 00:33:02;;;;;;;30.10;18.87;;;;;;;8.31;100.00;99817.05;1719248;81;22073;-61
2022/11/21 00:35:31;;;;;;;29.83;16.93;;;;;;;8.39;100.00;99819.09;1721591;83;21153;-60
2022/11/21 00:37:59;;;;;;;28.37;17.70;;;;;;;8.53;100.00;99821.39;1720087;83;21986;-68
2022/11/21 00:40:28;;;;;;;30.37;18.93;;;;;;;8.44;100.00;99816.75;1721160;81;21340;-60
2022/11/21 00:42:55;;;;;;;26.93;17.80;;;;;;;8.47;100.00;99817.70;1721470;82;21544;-59
2022/11/21 00:45:22;;;;;;;29.00;17.40;;;;;;;8.67;100.00;99817.14;1721163;83;21509;-59
2022/11/21 00:47:51;;;;;;;26.73;17.60;;;;;;;8.67;100.00;99817.14;1720879;83;21862;-71
2022/11/21 00:50:18;;;;;;;28.43;18.00;;;;;;;8.75;100.00;99804.88;1716163;83;21498;-58
2022/11/21 00:52:46;;;;;;;23.40;16.23;;;;;;;9.05;100.00;99807.88;1718858;82;22164;-58
2022/11/21 00:55:14;;;;;;;27.63;17.10;;;;;;;9.05;100.00;99807.88;1721399;83;22162;-59
2022/11/21 00:57:41;;;;;;;24.80;16.77;;;;;;;9.28;100.00;99803.81;1721144;83;21610;-59
2022/11/21 01:00:10;;;;;;;25.40;17.30;;;;;;;9.40;100.00;99801.05;1719898;81;22235;-72
2022/11/21 01:02:37;;;;;;;26.13;18.10;;;;;;;9.56;100.00;99807.78;1721266;83;21430;-59
2022/11/21 01:05:06;;;;;;;22.60;17.37;;;;;;;9.67;100.00;99805.48;1721499;83;21640;-59
2022/11/21 01:07:33;;;;;;;22.77;17.27;;;;;;;9.83;100.00;99812.20;1721148;82;21702;-60
2022/11/21 01:10:01;;;;;;;25.07;17.10;;;;;;;9.83;100.00;99812.20;1721023;83;21462;-62
2022/11/21 01:12:29;;;;;;;20.93;15.30;;;;;;;9.92;100.00;99817.56;1720212;83;21776;-59
2022/11/21 01:14:56;;;;;;;19.87;14.53;;;;;;;10.03;100.00;99816.75;1726714;82;21787;-59
2022/11/21 01:17:23;;;;;;;22.37;15.97;;;;;;;10.07;100.00;99804.95;1721200;83;22017;-59
2022/11/21 01:19:50;;;;;;;21.77;16.30;;;;;;;10.16;100.00;99809.03;1721149;83;21602;-60
2022/11/21 01:22:17;;;;;;;22.47;16.37;;;;;;;10.24;100.00;99808.88;1720613;83;21626;-71
2022/11/21 01:24:44;;;;;;;21.07;16.60;;;;;;;10.28;100.00;99799.72;1720301;82;22817;-59
2022/11/21 01:27:11;;;;;;;28.40;17.97;;;;;;;10.37;100.00;99803.76;1711294;83;22492;-59
2022/11/21 01:29:38;;;;;;;25.47;16.53;;;;;;;10.41;100.00;99801.07;1690624;84;21671;-59
2022/11/21 01:32:05;;;;;;;24.13;16.67;;;;;;;10.31;100.00;99798.03;1690699;84;21496;-71
2022/11/21 01:34:32;;;;;;;22.53;15.90;;;;;;;10.31;100.00;99798.03;1690033;84;21383;-71
2022/11/21 01:37:00;;;;;;;22.90;16.10;;;;;;;10.30;100.00;99800.31;1690514;84;21634;-59
2022/11/21 01:39:27;;;;;;;24.13;15.93;;;;;;;10.32;100.00;99789.22;1690655;84;20891;-59
2022/11/21 01:41:54;;;;;;;22.30;15.87;;;;;;;10.37;100.00;99795.94;1690705;83;21068;-58
2022/11/21 01:44:49;;;;;;;20.77;15.37;;;;;;;10.37;100.00;99793.34;1690019;84;21408;-71
2022/11/21 01:47:16;;;;;;;20.90;15.07;;;;;;;10.42;100.00;99787.07;1690269;84;20925;-59
2022/11/21 01:49:45;;;;;;;21.60;15.63;;;;;;;10.48;100.00;99782.37;1690117;84;21714;-60
2022/11/21 01:52:20;;;;;;;20.10;14.70;;;;;;;10.54;100.00;99771.69;1690223;84;21023;-62
2022/11/21 01:54:58;;;;;;;22.47;15.80;;;;;;;10.56;100.00;99772.78;1690501;84;21062;-59
2022/11/21 01:57:32;;;;;;;20.87;15.13;;;;;;;10.57;100.00;99766.09;1690040;84;21323;-65
2022/11/21 02:00:15;;;;;;;22.80;15.67;;;;;;;10.58;100.00;99774.70;1689626;84;22080;-59
2022/11/21 02:02:46;;;;;;;20.47;15.40;;;;;;;10.54;100.00;99771.69;1690636;84;21673;-62
2022/11/21 02:05:17;;;;;;;22.77;14.73;;;;;;;10.50;100.00;99770.97;1692071;83;21036;-61
2022/11/21 02:07:46;;;;;;;24.77;15.97;;;;;;;10.48;100.00;99766.73;1725040;81;21012;-61
2022/11/21 02:10:13;;;;;;;30.13;16.23;;;;;;;10.51;100.00;99769.96;1739108;82;21193;-58
2022/11/21 02:12:51;;;;;;;23.93;16.50;;;;;;;10.54;100.00;99761.77;1739095;81;20942;-71
2022/11/21 02:15:20;;;;;;;22.10;15.37;;;;;;;10.56;100.00;99771.47;1738940;82;21542;-63
2022/11/21 02:17:47;;;;;;;23.23;15.80;;;;;;;10.60;100.00;99763.57;1732511;82;21783;-58
2022/11/21 02:20:16;;;;;;;23.07;15.10;;;;;;;10.63;100.00;99764.48;1718526;83;21552;-58
2022/11/21 02:22:55;;;;;;;22.07;15.00;;;;;;;10.62;100.00;99754.56;1718149;83;21244;-59
2022/11/21 02:25:30;;;;;;;22.97;13.97;;;;;;;10.62;100.00;99764.20;1717923;83;20885;-64
2022/11/21 02:28:01;;;;;;;22.80;15.53;;;;;;;10.55;100.00;99762.06;1692476;83;21076;-59
2022/11/21 02:30:30;;;;;;;22.70;14.87;;;;;;;10.57;100.00;99766.09;1718087;83;20981;-60
2022/11/21 02:32:57;;;;;;;18.47;13.83;;;;;;;10.53;100.00;99760.13;1718397;82;21616;-70
2022/11/21 02:35:24;;;;;;;21.17;14.33;;;;;;;10.46;100.00;99762.23;1718311;82;22527;-60
2022/11/21 02:38:11;;;;;;;20.80;14.07;;;;;;;10.42;100.00;99765.42;1718529;83;20998;-58
2022/11/21 02:40:45;;;;;;;21.47;15.50;;;;;;;10.44;100.00;99763.41;1718471;82;21581;-72
2022/11/21 02:43:32;;;;;;;22.67;15.07;;;;;;;10.43;100.00;99774.84;1718354;83;21478;-59
2022/11/21 02:45:59;;;;;;;20.47;14.13;;;;;;;10.50;100.00;99765.76;1718299;82;20897;-61
2022/11/21 02:48:26;;;;;;;21.10;15.00;;;;;;;10.54;100.00;99769.58;1718637;82;21259;-61
2022/11/21 02:50:53;;;;;;;18.40;13.43;;;;;;;10.63;100.00;99769.20;1717791;83;20963;-59
2022/11/21 02:53:22;;;;;;;19.60;13.50;;;;;;;10.65;100.00;99763.30;1718531;82;21020;-59
2022/11/21 02:55:49;;;;;;;19.53;13.83;;;;;;;10.71;100.00;99750.77;1717991;82;21122;-64
2022/11/21 02:58:16;;;;;;;16.67;12.33;;;;;;;10.81;100.00;99750.41;1718488;82;21167;-59
2022/11/21 03:00:44;;;;;;;21.50;14.67;;;;;;;10.87;100.00;99754.02;1718248;82;21268;-61
2022/11/21 03:03:11;;;;;;;19.80;13.67;;;;;;;10.89;100.00;99746.31;1718547;82;20897;-59
2022/11/21 03:05:40;;;;;;;19.57;13.10;;;;;;;10.91;100.00;99746.94;1715446;83;21072;-72
2022/11/21 03:08:07;;;;;;;20.20;13.50;;;;;;;10.99;100.00;99737.33;1656610;86;21096;-59
2022/11/21 03:10:35;;;;;;;21.47;14.10;;;;;;;11.01;100.00;99736.11;1721280;83;21047;-59
2022/11/21 03:13:02;;;;;;;18.30;13.63;;;;;;;11.03;100.00;99729.41;1720249;81;21125;-69
2022/11/21 03:15:31;;;;;;;18.07;12.93;;;;;;;11.05;100.00;99736.52;1721115;83;22173;-60
2022/11/21 03:18:01;;;;;;;19.43;13.70;;;;;;;11.05;100.00;99739.92;1720440;81;21050;-59
2022/11/21 03:20:28;;;;;;;17.30;12.27;;;;;;;11.07;100.00;99746.27;1721139;83;21092;-59
2022/11/21 03:22:56;;;;;;;19.17;13.23;;;;;;;11.16;100.00;99733.32;1720397;81;20981;-59
2022/11/21 03:25:24;;;;;;;18.33;12.47;;;;;;;11.19;100.00;99736.34;1721329;83;21295;-59
2022/11/21 03:27:53;;;;;;;26.07;13.73;;;;;;;11.29;100.00;99739.03;1720077;83;20878;-64
2022/11/21 03:30:22;;;;;;;19.43;11.87;;;;;;;11.29;100.00;99732.04;1720851;83;21035;-59
2022/11/21 03:32:49;;;;;;;15.53;12.20;;;;;;;11.34;100.00;99736.65;1720524;83;21043;-60
2022/11/21 03:35:17;;;;;;;19.63;13.43;;;;;;;11.40;100.00;99728.00;1721208;81;21055;-59
2022/11/21 03:37:48;;;;;;;18.80;12.37;;;;;;;11.52;100.00;99733.45;1720948;81;20974;-71
2022/11/21 03:40:15;;;;;;;18.60;12.27;;;;;;;11.57;100.00;99729.72;1734080;81;20966;-59
2022/11/21 03:42:43;;;;;;;17.50;11.77;;;;;;;11.60;100.00;99729.31;1717035;82;20973;-59
2022/11/21 03:45:10;;;;;;;18.53;12.30;;;;;;;11.61;100.00;99729.61;1715697;82;21131;-59
2022/11/21 03:47:39;;;;;;;17.07;12.07;;;;;;;11.56;100.00;99719.78;1715345;83;20989;-63
2022/11/21 03:50:07;;;;;;;18.47;12.00;;;;;;;11.58;100.00;99716.95;1721423;81;21210;-60
2022/11/21 03:52:34;;;;;;;18.93;13.07;;;;;;;11.59;100.00;99718.55;1715012;83;20988;-60
2022/11/21 03:55:01;;;;;;;17.73;11.33;;;;;;;11.57;100.00;99710.14;1715816;82;22447;-59
2022/11/21 03:57:29;;;;;;;19.27;12.13;;;;;;;11.62;100.00;99708.51;1715835;83;21041;-62
2022/11/21 03:59:57;;;;;;;16.40;11.50;;;;;;;11.65;100.00;99700.78;1715281;82;20965;-59
2022/11/21 04:02:24;;;;;;;18.13;12.17;;;;;;;11.63;100.00;99697.56;1717494;83;21848;-58
2022/11/21 04:04:51;;;;;;;17.90;13.13;;;;;;;11.61;100.00;99703.50;1721321;81;21074;-60
2022/11/21 04:07:18;;;;;;;16.57;11.70;;;;;;;11.64;100.00;99703.91;1723917;83;21131;-59
2022/11/21 04:09:45;;;;;;;17.17;12.53;;;;;;;11.62;100.00;99696.77;1723369;81;21517;-62
2022/11/21 04:12:13;;;;;;;15.03;12.03;;;;;;;11.62;100.00;99703.80;1720383;82;22330;-59
2022/11/21 04:14:40;;;;;;;14.73;11.37;;;;;;;11.64;100.00;99699.98;1717692;82;22152;-67
2022/11/21 04:17:09;;;;;;;17.50;11.07;;;;;;;11.65;100.00;99695.56;1718522;83;20996;-59
2022/11/21 04:19:36;;;;;;;14.30;10.23;;;;;;;11.64;100.00;99691.36;1717872;82;20994;-71
2022/11/21 04:22:04;;;;;;;17.53;11.63;;;;;;;11.69;100.00;99699.38;1718491;82;21087;-59
2022/11/21 04:24:32;;;;;;;18.50;11.80;;;;;;;11.78;100.00;99691.64;1718389;82;21551;-71
2022/11/21 04:26:59;;;;;;;17.23;11.37;;;;;;;11.79;100.00;99691.13;1717969;83;21154;-58
2022/11/21 04:29:26;;;;;;;17.67;12.00;;;;;;;11.82;100.00;99688.91;1718049;82;20957;-63
2022/11/21 04:31:53;;;;;;;19.43;12.80;;;;;;;11.89;100.00;99689.73;1717656;82;21018;-62
2022/11/21 04:34:20;;;;;;;17.00;11.63;;;;;;;11.92;100.00;99678.05;1718590;83;21491;-59
2022/11/21 04:36:47;;;;;;;17.03;12.53;;;;;;;11.99;100.00;99676.73;1717844;82;21013;-60
2022/11/21 04:39:15;;;;;;;20.37;13.60;;;;;;;12.05;100.00;99681.14;1718401;83;21260;-59
2022/11/21 04:41:42;;;;;;;20.90;14.63;;;;;;;12.07;100.00;99685.64;1717797;82;21033;-59
2022/11/21 04:44:09;;;;;;;19.70;13.60;;;;;;;12.17;100.00;99678.17;1718488;82;21569;-60
2022/11/21 04:46:36;;;;;;;18.07;13.57;;;;;;;12.13;100.00;99675.69;1718085;83;21031;-71
2022/11/21 04:49:04;;;;;;;17.00;12.17;;;;;;;12.13;100.00;99683.52;1721566;81;22508;-58
2022/11/21 04:51:31;;;;;;;18.83;11.87;;;;;;;12.12;100.00;99681.42;1745024;81;21331;-66
2022/11/21 04:53:58;;;;;;;18.97;11.80;;;;;;;12.13;100.00;99683.02;1737468;80;20956;-60
2022/11/21 04:56:25;;;;;;;15.60;9.87;;;;;;;12.18;100.00;99685.00;1718521;81;21553;-61
2022/11/21 04:58:52;;;;;;;13.90;10.10;;;;;;;12.21;100.00;99689.81;1721890;81;21064;-60
2022/11/21 05:01:19;;;;;;;14.33;8.63;;;;;;;12.21;100.00;99706.80;1722581;83;21092;-61
2022/11/21 05:03:46;;;;;;;12.80;8.70;;;;;;;12.18;100.00;99713.73;1697074;83;21082;-60
2022/11/21 05:06:13;;;;;;;14.57;9.87;;;;;;;12.21;100.00;99708.61;1712582;82;21111;-69
2022/11/21 05:08:41;;;;;;;14.60;9.13;;;;;;;12.24;100.00;99694.63;1694685;84;21565;-61
2022/11/21 05:13:54;;;;;;;18.33;9.07;;;;;;;12.28;100.00;99698.44;1688682;84;21145;-67
2022/11/21 05:16:22;;;;;;;15.97;9.77;;;;;;;12.34;100.00;99704.12;1685911;84;21158;-60
2022/11/21 05:18:50;;;;;;;18.77;10.60;;;;;;;12.38;100.00;99707.92;1689665;84;21014;-64
2022/11/21 05:21:18;;;;;;;18.07;9.83;;;;;;;12.38;100.00;99713.66;1699506;83;20930;-65
2022/11/21 05:23:45;;;;;;;15.10;9.73;;;;;;;12.41;100.00;99718.47;1705092;83;21109;-62
2022/11/21 05:26:12;;;;;;;17.57;9.80;;;;;;;12.40;100.00;99709.03;1719040;83;21370;-60
2022/11/21 05:28:39;;;;;;;16.27;9.97;;;;;;;12.39;100.00;99709.55;1720274;83;21416;-60
2022/11/21 05:31:06;;;;;;;18.30;9.17;;;;;;;12.47;100.00;99710.32;1708000;83;21169;-61
2022/11/21 05:33:33;;;;;;;16.27;9.17;;;;;;;12.50;100.00;99705.95;1689185;84;21695;-70
2022/11/21 05:36:03;;;;;;;18.17;9.50;;;;;;;12.50;100.00;99708.09;1689058;84;21480;-70
2022/11/21 05:38:30;;;;;;;16.47;8.90;;;;;;;12.57;100.00;99707.53;1685921;84;21085;-60
2022/11/21 05:40:58;;;;;;;21.40;9.57;;;;;;;12.63;100.00;99700.16;1689610;84;21847;-60
2022/11/21 05:46:10;;;;;;;12.57;8.87;;;;;;;12.74;100.00;99707.85;1689721;84;21050;-60
2022/11/21 05:48:38;;;;;;;15.93;8.90;;;;;;;12.77;100.00;99709.25;1690029;84;21563;-60
2022/11/21 05:51:06;;;;;;;13.40;8.97;;;;;;;12.81;100.00;99713.05;1689965;84;21102;-69
2022/11/21 05:53:34;;;;;;;13.07;7.90;;;;;;;12.82;100.00;99718.05;1689122;84;21251;-63
2022/11/21 05:56:07;;;;;;;12.97;8.20;;;;;;;12.81;100.00;99709.92;1689651;84;21485;-59
2022/11/21 05:58:35;;;;;;;14.33;7.47;;;;;;;12.73;100.00;99703.64;1686852;84;21505;-61
2022/11/21 06:01:02;;;;;;;12.20;7.93;;;;;;;12.75;100.00;99713.37;1701766;83;20992;-67
2022/11/21 06:03:34;;;;;;;16.00;7.80;;;;;;;12.79;100.00;99710.63;1701982;83;21082;-60
2022/11/21 06:06:11;;;;;;;18.23;8.45;;;;;;;12.75;100.00;99702.91;1689611;82;25171;-58
2022/11/21 06:08:44;;;;;;;15.93;7.90;;;;;;;12.80;100.00;99716.66;1715737;83;21028;-59
2022/11/21 06:11:13;;;;;;;13.10;7.60;;;;;;;12.83;100.00;99719.66;1715939;83;20996;-67
2022/11/21 06:13:42;;;;;;;17.25;9.38;;;;;;;12.78;100.00;99716.08;1716440;82;22218;-58
2022/11/21 06:16:12;;;;;;;14.87;8.10;;;;;;;12.75;100.00;99721.73;1716338;82;21087;-58
2022/11/21 06:18:42;;;;;;;15.38;8.15;;;;;;;12.75;100.00;99715.98;1674992;84;21010;-59
2022/11/21 06:21:21;;;;;;;12.60;8.00;;;;;;;12.78;100.00;99715.57;1693425;84;21049;-68
2022/11/21 06:23:50;;;;;;;14.93;8.93;;;;;;;12.82;100.00;99724.59;1694278;83;20935;-58
2022/11/21 06:26:19;;;;;;;16.23;8.10;;;;;;;12.84;100.00;99721.28;1693998;83;21516;-58
2022/11/21 06:28:47;;;;;;;15.70;8.00;;;;;;;12.90;100.00;99730.88;1692919;83;21521;-68
2022/11/21 06:31:16;;;;;;;14.80;7.80;;;;;;;12.97;100.00;99723.51;1682764;85;21146;-58
2022/11/21 06:33:44;;;;;;;15.43;9.07;;;;;;;13.00;100.00;99725.20;1683437;85;21576;-58
2022/11/21 06:36:13;;;;;;;19.00;8.57;;;;;;;13.13;100.00;99707.28;1683297;85;21023;-58
2022/11/21 06:38:42;;;;;;;16.97;8.53;;;;;;;13.31;100.00;99698.21;1683385;85;20984;-65
2022/11/21 06:41:15;;;;;;;18.37;9.10;;;;;;;13.52;100.00;99699.62;1682894;85;21886;-59
2022/11/21 06:43:43;;;;;;;18.23;8.93;;;;;;;13.75;100.00;99691.17;1683622;85;21267;-58
2022/11/21 06:46:11;;;;;;;17.20;8.60;;;;;;;14.08;100.00;99695.23;1683922;85;21474;-58
2022/11/21 06:48:38;;;;;;;20.20;8.23;;;;;;;14.39;100.00;99691.62;1682952;84;20912;-60
2022/11/21 06:51:20;;;;;;;21.07;8.60;;;;;;;14.60;100.00;99685.92;1682841;85;21046;-59
2022/11/21 06:53:54;;;;;;;;;;;;;;;14.79;100.00;99689.29;1667039;85;21028;-58
2022/11/21 06:56:18;;;;;;;16.33;8.27;;;;;;;14.90;100.00;99690.34;1682728;84;21275;-63
2022/11/21 06:58:45;;;;;;;17.63;7.87;;;;;;;14.99;100.00;99692.12;1682371;84;21095;-60
2022/11/21 07:01:12;;;;;;;17.00;7.87;;;;;;;15.09;100.00;99693.70;1683285;84;21042;-59
2022/11/21 07:03:39;;;;;;;14.90;7.00;;;;;;;15.12;100.00;99688.00;1683312;85;21003;-59
2022/11/21 07:06:06;;;;;;;14.07;7.00;;;;;;;15.11;100.00;99692.94;1686753;83;21105;-60
2022/11/21 07:08:39;;;;;;;13.60;7.37;;;;;;;15.16;100.00;99682.58;1720643;82;21894;-60
2022/11/21 07:11:10;;;;;;;14.17;7.00;;;;;;;15.17;100.00;99686.80;1720763;82;20961;-61
2022/11/21 07:13:38;;;;;;;13.55;8.23;;;;;;;15.14;100.00;99684.62;1721423;83;20949;-61
2022/11/21 07:16:08;;;;;;;16.10;7.70;;;;;;;15.11;100.00;99686.89;1721278;81;21071;-69
2022/11/21 07:18:37;;;;;;;20.00;7.80;;;;;;;15.03;100.00;99695.90;1721229;83;20878;-60
2022/11/21 07:21:05;;;;;;;14.90;8.07;;;;;;;15.01;100.00;99697.45;1720609;83;22711;-60
2022/11/21 07:23:32;;;;;;;15.87;8.27;;;;;;;15.04;100.00;99684.40;1721215;83;20973;-60
2022/11/21 07:26:05;;;;;;;16.40;7.57;;;;;;;15.01;100.00;99684.33;1721311;83;21546;-60
2022/11/21 07:28:32;;;;;;;16.50;7.83;;;;;;;15.08;100.00;99671.90;1720785;83;20997;-60
2022/11/21 07:31:00;;;;;;;15.03;8.23;;;;;;;15.08;100.00;99669.79;1720660;83;21007;-60
2022/11/21 07:33:27;;;;;;;13.83;7.37;;;;;;;15.03;100.00;99679.63;1721423;81;22512;-61
2022/11/21 07:35:57;;;;;;;15.87;7.83;;;;;;;14.93;100.00;99679.41;1700617;83;20954;-60
2022/11/21 07:38:25;;;;;;;11.95;7.25;;;;;;;14.89;100.00;99677.44;1690465;83;21037;-70
2022/11/21 07:40:52;;;;;;;17.33;8.33;;;;;;;14.80;100.00;99680.39;1690533;84;21012;-62
2022/11/21 07:43:20;;;;;;;15.37;7.60;;;;;;;14.72;100.00;99674.16;1722526;81;20963;-60
2022/11/21 07:45:47;;;;;;;15.93;7.30;;;;;;;14.61;100.00;99672.30;1741441;81;21251;-60
2022/11/21 07:48:15;;;;;;;14.53;7.10;;;;;;;14.51;100.00;99673.37;1721122;83;20976;-59
2022/11/21 11:15:27;;;;;;;21.30;8.70;;;;;;;15.95;100.00;99601.54;1784864;78;27127;-66
2022/11/21 11:18:17;;;;;;;22.93;9.00;;;;;;;15.99;100.00;99606.61;1785958;78;21013;-69
2022/11/21 11:20:45;;;;;;;18.50;9.30;;;;;;;16.00;100.00;99606.09;1730818;81;21268;-66
2022/11/21 11:23:25;;;;;;;22.40;9.37;;;;;;;15.96;100.00;99604.44;1734615;81;20947;-76
2022/11/21 11:25:57;;;;;;;20.77;12.43;;;;;;;16.01;100.00;99608.99;1731724;81;21284;-67
2022/11/21 11:28:26;;;;;;;24.20;11.60;;;;;;;15.94;100.00;99610.95;1730441;81;21717;-68
2022/11/21 11:30:54;;;;;;;25.30;11.10;;;;;;;15.99;100.00;99613.70;1731013;81;21496;-67
2022/11/21 11:33:30;;;;;;;25.50;12.77;;;;;;;16.07;100.00;99615.95;1730313;81;21696;-77
2022/11/21 11:36:18;;;;;;;27.87;16.77;;;;;;;15.96;100.00;99620.22;1704935;84;21028;-67
2022/11/21 11:38:55;;;;;;;24.33;13.67;;;;;;;16.02;100.00;99615.34;1718848;82;21549;-75
2022/11/21 11:47:32;;;;;;;41.30;22.70;;;;;;;16.09;100.00;99612.56;1667658;83;21294;-66
2022/11/21 11:50:21;;;;;;;32.43;17.97;;;;;;;16.04;100.00;99613.79;1726367;82;21009;-70
2022/11/21 11:53:25;;;;;;;23.47;12.00;;;;;;;16.01;100.00;99615.05;1727537;82;20982;-67
2022/11/21 11:56:14;;;;;;;16.90;11.07;;;;;;;15.97;100.00;99613.13;1731503;81;21051;-66
2022/11/21 11:59:08;;;;;;;27.60;10.40;;;;;;;15.91;100.00;99608.79;1732086;82;21009;-74
2022/11/21 12:01:47;;;;;;;15.20;7.07;;;;;;;15.91;100.00;99612.73;1732187;82;20930;-70
2022/11/21 12:04:20;;;;;;;15.93;6.63;;;;;;;15.84;100.00;99614.72;1728815;81;21484;-75
2022/11/21 12:07:02;;;;;;;22.47;6.60;;;;;;;15.83;100.00;99609.16;1715605;83;21155;-68
2022/11/21 12:09:41;;;;;;;20.83;8.97;;;;;;;15.87;100.00;99605.83;1727656;82;20998;-68
2022/11/21 12:12:23;;;;;;;18.30;11.00;;;;;;;15.80;100.00;99596.78;1726951;83;20978;-66
2022/11/21 12:15:47;;;;;;;21.10;11.83;;;;;;;15.85;100.00;99580.83;1727317;83;21275;-68
2022/11/21 12:18:29;;;;;;;13.63;6.73;;;;;;;15.95;100.00;99581.03;1726911;83;21401;-66
2022/11/21 12:21:14;;;;;;;17.17;6.17;;;;;;;15.93;100.00;99606.73;1728091;82;20978;-68
2022/11/21 12:23:55;;;;;;;14.27;6.53;;;;;;;15.89;100.00;99610.34;1731856;82;20977;-67
2022/11/21 12:26:34;;;;;;;18.93;8.30;;;;;;;15.80;100.00;99612.55;1704302;81;20926;-73
2022/11/21 12:29:25;;;;;;;19.50;6.67;;;;;;;15.73;100.00;99617.66;1733431;82;21170;-66
2022/11/21 12:32:30;;;;;;;14.80;9.13;;;;;;;15.69;100.00;99625.72;1733059;82;20934;-74
2022/11/21 12:35:41;;;;;;;22.97;10.97;;;;;;;15.65;100.00;99638.52;1732051;81;20970;-65
2022/11/21 12:38:39;;;;;;;18.30;8.83;;;;;;;15.62;100.00;99626.33;1732087;82;20938;-66
2022/11/21 12:45:07;;;;;;;12.93;6.17;;;;;;;15.50;100.00;99636.86;1731636;82;21163;-66
2022/11/21 12:54:44;;;;;;;15.47;5.93;;;;;;;15.28;100.00;99663.69;1730607;82;20942;-68
2022/11/21 12:57:15;;;;;;;16.97;6.43;;;;;;;15.22;100.00;99658.54;1729022;81;21011;-68
2022/11/21 13:00:14;;;;;;;14.43;6.28;;;;;;;15.20;100.00;99661.41;1703970;84;21815;-75
2022/11/21 13:03:03;;;;;;;12.77;6.30;;;;;;;15.19;100.00;99662.44;1704368;84;21492;-68
2022/11/21 13:05:33;;;;;;;14.43;5.60;;;;;;;15.11;100.00;99668.00;1678382;85;21504;-66
2022/11/21 13:08:06;;;;;;;14.73;6.40;;;;;;;15.11;100.00;99669.31;1703558;82;20921;-66
2022/11/21 13:10:34;;;;;;;17.63;5.93;;;;;;;15.16;100.00;99664.20;1713168;83;21447;-66
2022/11/21 13:13:25;;;;;;;12.83;5.43;;;;;;;15.11;100.00;99658.02;1664351;83;21335;-73
2022/11/21 13:16:09;;;;;;;12.63;4.92;;;;;;;14.99;100.00;99664.05;1712024;83;20901;-67
2022/11/21 13:18:45;;;;;;;14.60;5.20;;;;;;;14.99;100.00;99665.87;1711519;83;20885;-74
2022/11/21 13:21:47;;;;;;;13.60;5.33;;;;;;;15.09;100.00;99675.31;1712371;83;21580;-66
2022/11/21 13:24:49;;;;;;;13.93;5.50;;;;;;;14.99;100.00;99664.57;1711841;83;21056;-66
2022/11/21 13:27:37;;;;;;;15.53;6.53;;;;;;;14.89;100.00;99670.88;1722107;82;25392;-74
2022/11/21 13:30:13;;;;;;;12.80;6.30;;;;;;;14.84;100.00;99668.93;1739941;82;21026;-66
2022/11/21 13:32:49;;;;;;;14.60;7.23;;;;;;;14.73;100.00;99674.44;1740129;82;20971;-67
2022/11/21 13:35:24;;;;;;;12.70;5.87;;;;;;;14.73;100.00;99671.81;1734381;82;20987;-70
2022/11/21 13:38:07;;;;;;;12.17;5.83;;;;;;;14.83;100.00;99677.32;1725445;83;21061;-69
2022/11/21 13:42:55;;;;;;;14.03;5.70;;;;;;;14.74;100.00;99672.64;1725077;82;21497;-69
2022/11/21 13:43:24;;;;;;;10.27;5.40;;;;;;;14.70;100.00;99669.66;1722945;83;21057;-68
2022/11/21 13:45:55;;;;;;;14.60;5.93;;;;;;;14.70;100.00;99664.90;1725251;82;20987;-67
2022/11/21 13:48:51;;;;;;;13.67;5.40;;;;;;;14.73;100.00;99672.33;1724684;82;20955;-68
2022/11/21 13:51:34;;;;;;;14.93;5.30;;;;;;;14.72;100.00;99668.11;1638983;87;21054;-68
2022/11/21 13:54:22;;;;;;;12.23;6.27;;;;;;;14.72;100.00;99670.22;1724977;83;22394;-74
2022/11/21 13:57:09;;;;;;;15.10;6.63;;;;;;;14.67;100.00;99671.41;1736774;82;21508;-68
2022/11/21 14:00:18;;;;;;;18.17;8.80;;;;;;;14.63;100.00;99658.97;1712962;81;20980;-74
2022/11/21 14:03:03;;;;;;;14.43;6.23;;;;;;;14.64;100.00;99659.25;1702064;83;20988;-67
2022/11/21 14:06:04;;;;;;;15.57;8.67;;;;;;;14.59;100.00;99667.28;1730938;81;21046;-67
2022/11/21 14:08:31;;;;;;;14.95;7.75;;;;;;;14.51;100.00;99664.19;1700245;84;21858;-67
2022/11/21 14:11:19;;;;;;;17.80;9.53;;;;;;;14.46;100.00;99662.18;1731614;82;20963;-68
2022/11/21 14:13:47;;;;;;;56.00;40.20;;;;;;;14.45;100.00;99659.79;1700720;84;21033;-68
2022/11/21 14:16:36;;;;;;;67.23;50.63;;;;;;;14.39;100.00;99653.59;1761731;81;20954;-67
2022/11/21 14:19:03;;;;;;;40.87;26.17;;;;;;;14.34;100.00;99639.05;1762675;81;21053;-67
2022/11/21 14:21:31;;;;;;;34.13;21.93;;;;;;;14.32;100.00;99627.49;1761456;81;22428;-66
2022/11/21 14:24:07;;;;;;;31.57;20.67;;;;;;;14.25;100.00;99603.19;1760689;81;21042;-72
2022/11/21 14:26:40;;;;;;;30.10;23.40;;;;;;;14.19;100.00;99623.72;1760359;81;21479;-67
2022/11/21 14:29:27;;;;;;;29.40;20.53;;;;;;;14.18;100.00;99617.41;1761215;81;21033;-67
2022/11/21 14:31:55;;;;;;;29.30;18.40;;;;;;;14.14;100.00;99632.77;1733048;81;21012;-64
2022/11/21 14:34:28;;;;;;;33.43;19.83;;;;;;;14.13;100.00;99628.55;1732260;82;21158;-70
2022/11/21 14:36:57;;;;;;;26.70;18.77;;;;;;;14.12;100.00;99629.55;1732620;82;22493;-65
2022/11/21 14:39:27;;;;;;;29.23;17.63;;;;;;;14.16;100.00;99628.61;1732491;82;20932;-77
2022/11/21 14:41:56;;;;;;;25.47;16.00;;;;;;;14.16;100.00;99620.23;1732067;82;21612;-65
2022/11/21 14:44:24;;;;;;;28.23;15.53;;;;;;;14.17;100.00;99615.30;1732480;82;20944;-75
2022/11/21 14:47:09;;;;;;;22.03;13.63;;;;;;;14.17;100.00;99612.67;1732406;81;21256;-65
2022/11/21 14:49:37;;;;;;;22.60;12.23;;;;;;;14.15;100.00;99616.53;1712066;82;21023;-68
2022/11/21 14:52:16;;;;;;;21.00;11.97;;;;;;;14.06;100.00;99619.46;1731743;82;20975;-76
2022/11/21 14:54:53;;;;;;;18.70;11.50;;;;;;;14.00;100.00;99622.95;1731871;81;21476;-66
2022/11/21 14:57:26;;;;;;;22.37;11.30;;;;;;;14.05;100.00;99631.45;1754368;81;21562;-64
2022/11/21 14:59:54;;;;;;;15.80;9.43;;;;;;;13.99;100.00;99633.67;1755294;81;21121;-66
2022/11/21 15:02:27;;;;;;;18.27;8.90;;;;;;;13.99;100.00;99628.42;1755560;81;21370;-63
2022/11/21 15:04:56;;;;;;;18.07;8.37;;;;;;;13.91;100.00;99623.49;1755616;81;20922;-64
2022/11/21 15:07:28;;;;;;;14.67;8.07;;;;;;;13.93;100.00;99624.05;1756044;81;21121;-64
2022/11/21 15:09:56;;;;;;;20.90;10.10;;;;;;;13.92;100.00;99624.56;1732181;81;20945;-65
2022/11/21 15:12:36;;;;;;;16.87;8.63;;;;;;;13.97;100.00;99621.28;1679523;82;21305;-76
2022/11/21 15:15:24;;;;;;;19.13;9.97;;;;;;;14.13;100.00;99624.62;1731807;82;21046;-66
2022/11/21 15:17:58;;;;;;;16.87;9.03;;;;;;;14.13;100.00;99624.62;1717826;81;21674;-71
2022/11/21 15:20:26;;;;;;;15.33;9.50;;;;;;;14.19;100.00;99619.79;1728022;81;21061;-66
2022/11/21 15:22:57;;;;;;;15.37;9.03;;;;;;;14.08;100.00;99617.92;1731860;82;20904;-66
2022/11/21 15:25:28;;;;;;;17.07;8.73;;;;;;;14.07;100.00;99620.26;1728654;82;21642;-65